sensor_id;sensor_type;location;lat;lon;timestamp;pressure;altitude;pressure_sealevel;temperature;humidity
35989;BME280;22064;42.672;23.282;2024-02-15T00:02:22;95078.34;;;1.03;65.78
35989;BME280;22064;42.672;23.282;2024-02-15T00:04:48;95080.72;;;1.11;66.72
35989;BME280;22064;42.672;23.282;2024-02-15T00:07:14;95083.94;;;1.38;64.64
35989;BME280;22064;42.672;23.282;2024-02-15T00:09:40;95089.00;;;1.19;65.09
35989;BME280;22064;42.672;23.282;2024-02-15T00:12:06;95080.34;;;1.46;64.05
35989;BME280;22064;42.672;23.282;2024-02-15T00:14:32;95075.41;;;0.92;66.08
35989;BME280;22064;42.672;23.282;2024-02-15T00:16:58;95079.97;;;0.97;65.23
35989;BME280;22064;42.672;23.282;2024-02-15T00:19:23;95083.50;;;1.09;65.51
35989;BME280;22064;42.672;23.282;2024-02-15T00:21:50;95088.09;;;1.01;65.93
35989;BME280;22064;42.672;23.282;2024-02-15T00:24:15;95062.06;;;0.95;65.08
35989;BME280;22064;42.672;23.282;2024-02-15T00:26:42;95092.16;;;0.83;66.96
35989;BME280;22064;42.672;23.282;2024-02-15T00:29:09;95107.50;;;0.65;67.16
35989;BME280;22064;42.672;23.282;2024-02-15T00:31:35;95088.66;;;1.09;65.74
35989;BME280;22064;42.672;23.282;2024-02-15T00:34:01;95097.50;;;0.95;67.64
35989;BME280;22064;42.672;23.282;2024-02-15T00:36:30;95101.31;;;1.31;64.75
35989;BME280;22064;42.672;23.282;2024-02-15T00:38:56;95105.72;;;0.65;67.25
35989;BME280;22064;42.672;23.282;2024-02-15T00:41:22;95094.34;;;0.86;68.04
35989;BME280;22064;42.672;23.282;2024-02-15T00:43:48;95104.66;;;0.93;66.18
35989;BME280;22064;42.672;23.282;2024-02-15T00:46:17;95094.81;;;0.37;69.05
35989;BME280;22064;42.672;23.282;2024-02-15T00:48:43;95095.84;;;1.01;66.45
35989;BME280;22064;42.672;23.282;2024-02-15T00:51:09;95083.13;;;1.06;64.58
35989;BME280;22064;42.672;23.282;2024-02-15T00:53:35;95094.78;;;0.63;67.32
35989;BME280;22064;42.672;23.282;2024-02-15T00:56:01;95104.94;;;0.65;68.41
35989;BME280;22064;42.672;23.282;2024-02-15T00:58:26;95100.78;;;0.31;68.45
35989;BME280;22064;42.672;23.282;2024-02-15T01:00:53;95101.56;;;0.44;69.23
35989;BME280;22064;42.672;23.282;2024-02-15T01:03:19;95108.06;;;0.80;67.25
35989;BME280;22064;42.672;23.282;2024-02-15T01:05:45;95106.72;;;0.71;67.76
35989;BME280;22064;42.672;23.282;2024-02-15T01:08:11;95091.97;;;0.78;68.46
35989;BME280;22064;42.672;23.282;2024-02-15T01:10:37;95112.63;;;0.85;65.32
35989;BME280;22064;42.672;23.282;2024-02-15T01:13:03;95089.63;;;0.50;68.73
35989;BME280;22064;42.672;23.282;2024-02-15T01:15:29;95087.00;;;0.77;67.33
35989;BME280;22064;42.672;23.282;2024-02-15T01:17:55;95086.19;;;0.76;65.70
35989;BME280;22064;42.672;23.282;2024-02-15T01:20:21;95059.41;;;0.64;66.25
35989;BME280;22064;42.672;23.282;2024-02-15T01:22:47;95087.16;;;0.88;65.95
35989;BME280;22064;42.672;23.282;2024-02-15T01:25:13;95097.16;;;0.71;66.98
35989;BME280;22064;42.672;23.282;2024-02-15T01:27:41;95085.28;;;0.44;69.16
35989;BME280;22064;42.672;23.282;2024-02-15T01:30:07;95086.84;;;0.58;67.29
35989;BME280;22064;42.672;23.282;2024-02-15T01:32:34;95089.38;;;1.30;64.54
35989;BME280;22064;42.672;23.282;2024-02-15T01:35:00;95097.66;;;1.00;65.17
35989;BME280;22064;42.672;23.282;2024-02-15T01:37:26;95090.75;;;0.81;66.61
35989;BME280;22064;42.672;23.282;2024-02-15T01:39:52;95092.72;;;0.85;66.92
35989;BME280;22064;42.672;23.282;2024-02-15T01:42:18;95090.44;;;0.64;68.13
35989;BME280;22064;42.672;23.282;2024-02-15T01:44:44;95063.19;;;0.61;65.81
35989;BME280;22064;42.672;23.282;2024-02-15T01:47:13;95086.75;;;0.85;66.52
35989;BME280;22064;42.672;23.282;2024-02-15T01:49:39;95107.69;;;0.77;66.59
35989;BME280;22064;42.672;23.282;2024-02-15T01:52:07;95097.84;;;1.05;65.55
35989;BME280;22064;42.672;23.282;2024-02-15T01:54:36;95091.16;;;0.78;66.28
35989;BME280;22064;42.672;23.282;2024-02-15T01:57:04;95090.31;;;0.97;64.76
35989;BME280;22064;42.672;23.282;2024-02-15T01:59:31;95074.94;;;0.44;67.30
35989;BME280;22064;42.672;23.282;2024-02-15T02:01:57;95096.25;;;1.11;64.89
35989;BME280;22064;42.672;23.282;2024-02-15T02:04:23;95097.72;;;0.87;66.06
35989;BME280;22064;42.672;23.282;2024-02-15T02:06:49;95097.59;;;0.55;67.76
35989;BME280;22064;42.672;23.282;2024-02-15T02:09:16;95095.59;;;0.50;68.80
35989;BME280;22064;42.672;23.282;2024-02-15T02:11:44;95100.53;;;0.65;68.43
35989;BME280;22064;42.672;23.282;2024-02-15T02:14:10;95098.59;;;0.34;68.63
35989;BME280;22064;42.672;23.282;2024-02-15T02:16:37;95101.56;;;0.38;69.21
35989;BME280;22064;42.672;23.282;2024-02-15T02:19:05;95112.09;;;0.56;68.48
35989;BME280;22064;42.672;23.282;2024-02-15T02:21:38;95104.31;;;0.69;68.25
35989;BME280;22064;42.672;23.282;2024-02-15T02:24:13;95105.66;;;0.92;67.27
35989;BME280;22064;42.672;23.282;2024-02-15T02:26:39;95103.66;;;0.87;66.68
35989;BME280;22064;42.672;23.282;2024-02-15T02:29:05;95102.34;;;0.65;67.56
35989;BME280;22064;42.672;23.282;2024-02-15T02:31:36;95115.06;;;0.60;66.70
35989;BME280;22064;42.672;23.282;2024-02-15T02:34:02;95116.06;;;0.59;68.66
35989;BME280;22064;42.672;23.282;2024-02-15T02:36:29;95104.78;;;1.11;65.50
35989;BME280;22064;42.672;23.282;2024-02-15T02:38:55;95103.56;;;0.42;68.10
35989;BME280;22064;42.672;23.282;2024-02-15T02:41:27;95100.94;;;0.62;67.76
35989;BME280;22064;42.672;23.282;2024-02-15T02:43:55;95098.19;;;0.37;67.82
35989;BME280;22064;42.672;23.282;2024-02-15T02:46:22;95101.16;;;0.67;67.79
35989;BME280;22064;42.672;23.282;2024-02-15T02:48:48;95109.06;;;0.72;66.70
35989;BME280;22064;42.672;23.282;2024-02-15T02:51:15;95112.94;;;1.15;65.04
35989;BME280;22064;42.672;23.282;2024-02-15T02:53:41;95119.81;;;0.76;66.98
35989;BME280;22064;42.672;23.282;2024-02-15T02:56:07;95118.69;;;0.52;68.83
35989;BME280;22064;42.672;23.282;2024-02-15T02:58:35;95118.47;;;0.34;68.14
35989;BME280;22064;42.672;23.282;2024-02-15T03:01:01;95107.31;;;0.20;71.37
35989;BME280;22064;42.672;23.282;2024-02-15T03:03:27;95113.69;;;0.31;71.70
35989;BME280;22064;42.672;23.282;2024-02-15T03:05:53;95121.03;;;0.00;74.16
35989;BME280;22064;42.672;23.282;2024-02-15T03:08:19;95106.16;;;0.49;69.10
35989;BME280;22064;42.672;23.282;2024-02-15T03:10:46;95119.47;;;0.06;73.30
35989;BME280;22064;42.672;23.282;2024-02-15T03:13:12;95114.69;;;0.29;73.28
35989;BME280;22064;42.672;23.282;2024-02-15T03:15:38;95119.88;;;0.29;71.81
35989;BME280;22064;42.672;23.282;2024-02-15T03:18:04;95103.19;;;-0.01;73.21
35989;BME280;22064;42.672;23.282;2024-02-15T03:20:37;95131.38;;;0.00;73.38
35989;BME280;22064;42.672;23.282;2024-02-15T03:23:03;95137.16;;;0.16;73.91
35989;BME280;22064;42.672;23.282;2024-02-15T03:25:29;95131.97;;;0.09;74.56
35989;BME280;22064;42.672;23.282;2024-02-15T03:27:57;95123.84;;;0.52;71.48
35989;BME280;22064;42.672;23.282;2024-02-15T03:30:25;95131.59;;;0.59;70.79
35989;BME280;22064;42.672;23.282;2024-02-15T03:32:53;95132.56;;;0.38;72.14
35989;BME280;22064;42.672;23.282;2024-02-15T03:35:20;95123.03;;;0.58;71.15
35989;BME280;22064;42.672;23.282;2024-02-15T03:37:51;95137.34;;;0.47;70.74
35989;BME280;22064;42.672;23.282;2024-02-15T03:40:17;95127.41;;;0.44;71.74
35989;BME280;22064;42.672;23.282;2024-02-15T03:42:43;95118.88;;;0.24;70.79
35989;BME280;22064;42.672;23.282;2024-02-15T03:45:09;95120.66;;;0.30;72.55
35989;BME280;22064;42.672;23.282;2024-02-15T03:47:36;95131.97;;;0.22;75.43
35989;BME280;22064;42.672;23.282;2024-02-15T03:50:06;95121.66;;;0.02;75.48
35989;BME280;22064;42.672;23.282;2024-02-15T03:52:33;95139.72;;;0.02;76.11
35989;BME280;22064;42.672;23.282;2024-02-15T03:54:59;95141.53;;;0.15;73.90
35989;BME280;22064;42.672;23.282;2024-02-15T03:57:26;95133.56;;;-0.03;75.88
35989;BME280;22064;42.672;23.282;2024-02-15T03:59:52;95123.03;;;0.25;73.69
35989;BME280;22064;42.672;23.282;2024-02-15T04:02:23;95138.13;;;0.41;71.03
35989;BME280;22064;42.672;23.282;2024-02-15T04:04:55;95136.94;;;-0.16;77.56
35989;BME280;22064;42.672;23.282;2024-02-15T04:07:24;95128.78;;;-0.06;77.92
35989;BME280;22064;42.672;23.282;2024-02-15T04:09:53;95130.41;;;0.61;72.70
35989;BME280;22064;42.672;23.282;2024-02-15T04:12:19;95127.16;;;-0.21;76.02
35989;BME280;22064;42.672;23.282;2024-02-15T04:14:45;95145.50;;;0.18;75.47
35989;BME280;22064;42.672;23.282;2024-02-15T04:17:12;95148.88;;;0.18;74.67
35989;BME280;22064;42.672;23.282;2024-02-15T04:19:39;95153.75;;;-0.47;77.99
35989;BME280;22064;42.672;23.282;2024-02-15T04:22:06;95151.56;;;-0.43;79.61
35989;BME280;22064;42.672;23.282;2024-02-15T04:24:34;95145.69;;;-0.17;76.59
35989;BME280;22064;42.672;23.282;2024-02-15T04:27:00;95143.50;;;-0.13;76.52
35989;BME280;22064;42.672;23.282;2024-02-15T04:29:26;95141.88;;;-0.28;78.28
35989;BME280;22064;42.672;23.282;2024-02-15T04:31:52;95153.38;;;-0.37;80.20
35989;BME280;22064;42.672;23.282;2024-02-15T04:34:20;95147.19;;;-0.43;82.65
35989;BME280;22064;42.672;23.282;2024-02-15T04:36:47;95147.63;;;-0.26;80.87
35989;BME280;22064;42.672;23.282;2024-02-15T04:39:16;95138.53;;;0.05;77.09
35989;BME280;22064;42.672;23.282;2024-02-15T04:41:53;95149.97;;;-0.44;82.92
35989;BME280;22064;42.672;23.282;2024-02-15T04:44:19;95165.16;;;-0.01;77.96
35989;BME280;22064;42.672;23.282;2024-02-15T04:46:55;95154.88;;;-0.69;84.65
35989;BME280;22064;42.672;23.282;2024-02-15T04:49:21;95160.56;;;0.01;79.88
35989;BME280;22064;42.672;23.282;2024-02-15T04:51:48;95165.03;;;-0.54;81.92
35989;BME280;22064;42.672;23.282;2024-02-15T04:54:14;95152.41;;;-0.16;81.50
35989;BME280;22064;42.672;23.282;2024-02-15T04:56:40;95153.06;;;-0.69;84.99
35989;BME280;22064;42.672;23.282;2024-02-15T04:59:07;95151.41;;;-0.83;88.29
35989;BME280;22064;42.672;23.282;2024-02-15T05:01:40;95171.38;;;-0.57;87.67
35989;BME280;22064;42.672;23.282;2024-02-15T05:04:11;95174.09;;;-0.72;87.99
35989;BME280;22064;42.672;23.282;2024-02-15T05:06:38;95183.78;;;-0.26;83.12
35989;BME280;22064;42.672;23.282;2024-02-15T05:09:04;95184.59;;;-0.19;82.08
35989;BME280;22064;42.672;23.282;2024-02-15T05:11:36;95190.84;;;-0.54;86.22
35989;BME280;22064;42.672;23.282;2024-02-15T05:14:03;95176.81;;;-0.32;83.59
35989;BME280;22064;42.672;23.282;2024-02-15T05:16:35;95193.34;;;-0.20;82.29
35989;BME280;22064;42.672;23.282;2024-02-15T05:19:10;95184.97;;;-0.28;79.56
35989;BME280;22064;42.672;23.282;2024-02-15T05:21:39;95196.81;;;-0.47;81.43
35989;BME280;22064;42.672;23.282;2024-02-15T05:24:06;95187.81;;;0.03;78.54
35989;BME280;22064;42.672;23.282;2024-02-15T05:26:32;95185.66;;;0.27;75.70
35989;BME280;22064;42.672;23.282;2024-02-15T05:28:59;95176.91;;;0.35;75.77
35989;BME280;22064;42.672;23.282;2024-02-15T05:31:24;95190.75;;;-0.13;77.17
35989;BME280;22064;42.672;23.282;2024-02-15T05:33:53;95190.78;;;-0.06;81.01
35989;BME280;22064;42.672;23.282;2024-02-15T05:36:20;95197.69;;;-0.75;85.63
35989;BME280;22064;42.672;23.282;2024-02-15T05:38:53;95201.56;;;-0.57;85.46
35989;BME280;22064;42.672;23.282;2024-02-15T05:41:19;95207.16;;;-0.41;83.97
35989;BME280;22064;42.672;23.282;2024-02-15T05:43:47;95204.34;;;-0.52;84.44
35989;BME280;22064;42.672;23.282;2024-02-15T05:46:19;95209.38;;;-0.31;81.16
35989;BME280;22064;42.672;23.282;2024-02-15T05:48:47;95196.50;;;-0.18;79.14
35989;BME280;22064;42.672;23.282;2024-02-15T05:51:13;95203.44;;;-0.25;81.76
35989;BME280;22064;42.672;23.282;2024-02-15T05:53:39;95212.81;;;-0.10;79.03
35989;BME280;22064;42.672;23.282;2024-02-15T05:56:07;95220.34;;;-0.15;80.14
35989;BME280;22064;42.672;23.282;2024-02-15T05:58:34;95215.78;;;-0.20;79.73
35989;BME280;22064;42.672;23.282;2024-02-15T06:01:01;95218.16;;;-0.19;79.51
35989;BME280;22064;42.672;23.282;2024-02-15T06:03:28;95212.56;;;-0.35;81.63
35989;BME280;22064;42.672;23.282;2024-02-15T06:05:54;95226.41;;;-0.43;83.96
35989;BME280;22064;42.672;23.282;2024-02-15T06:08:27;95219.00;;;-0.05;82.15
35989;BME280;22064;42.672;23.282;2024-02-15T06:10:55;95222.91;;;-0.29;82.69
35989;BME280;22064;42.672;23.282;2024-02-15T06:13:22;95231.94;;;-0.53;85.16
35989;BME280;22064;42.672;23.282;2024-02-15T06:15:49;95225.34;;;-0.14;80.31
35989;BME280;22064;42.672;23.282;2024-02-15T06:18:22;95225.13;;;-0.19;82.56
35989;BME280;22064;42.672;23.282;2024-02-15T06:20:50;95229.38;;;0.35;77.10
35989;BME280;22064;42.672;23.282;2024-02-15T06:23:17;95238.13;;;-0.41;81.88
35989;BME280;22064;42.672;23.282;2024-02-15T06:25:47;95234.06;;;-0.15;82.32
35989;BME280;22064;42.672;23.282;2024-02-15T06:28:16;95235.59;;;-0.27;83.21
35989;BME280;22064;42.672;23.282;2024-02-15T06:31:09;95258.03;;;-0.28;80.55
35989;BME280;22064;42.672;23.282;2024-02-15T06:33:54;95239.13;;;0.40;75.50
35989;BME280;22064;42.672;23.282;2024-02-15T06:36:55;95248.91;;;-0.72;86.98
35989;BME280;22064;42.672;23.282;2024-02-15T06:39:40;95248.25;;;-0.80;90.30
35989;BME280;22064;42.672;23.282;2024-02-15T06:42:12;95250.16;;;-0.20;84.00
35989;BME280;22064;42.672;23.282;2024-02-15T06:44:42;95247.97;;;-0.09;81.12
35989;BME280;22064;42.672;23.282;2024-02-15T06:47:08;95263.72;;;0.09;78.88
35989;BME280;22064;42.672;23.282;2024-02-15T06:49:39;95262.94;;;0.15;78.82
35989;BME280;22064;42.672;23.282;2024-02-15T06:52:08;95270.31;;;-0.36;81.25
35989;BME280;22064;42.672;23.282;2024-02-15T06:54:35;95211.25;;;-0.59;84.41
35989;BME280;22064;42.672;23.282;2024-02-15T06:57:02;95232.97;;;-0.41;82.53
35989;BME280;22064;42.672;23.282;2024-02-15T06:59:28;95258.94;;;0.06;78.81
35989;BME280;22064;42.672;23.282;2024-02-15T07:01:54;95263.88;;;-0.12;78.66
35989;BME280;22064;42.672;23.282;2024-02-15T07:04:20;95245.94;;;0.47;75.25
35989;BME280;22064;42.672;23.282;2024-02-15T07:06:46;95263.53;;;0.11;75.45
35989;BME280;22064;42.672;23.282;2024-02-15T07:09:14;95266.16;;;0.17;74.60
35989;BME280;22064;42.672;23.282;2024-02-15T07:11:47;95239.78;;;-0.33;77.95
35989;BME280;22064;42.672;23.282;2024-02-15T07:14:13;95267.72;;;0.18;76.46
35989;BME280;22064;42.672;23.282;2024-02-15T07:16:39;95254.06;;;0.44;72.15
35989;BME280;22064;42.672;23.282;2024-02-15T07:19:06;95254.69;;;0.60;70.58
35989;BME280;22064;42.672;23.282;2024-02-15T07:21:34;95248.06;;;0.31;73.94
35989;BME280;22064;42.672;23.282;2024-02-15T07:24:01;95245.75;;;-0.26;75.55
35989;BME280;22064;42.672;23.282;2024-02-15T07:26:27;95246.81;;;-0.00;75.33
35989;BME280;22064;42.672;23.282;2024-02-15T07:28:54;95235.56;;;0.34;72.84
35989;BME280;22064;42.672;23.282;2024-02-15T07:31:20;95237.13;;;0.35;70.27
35989;BME280;22064;42.672;23.282;2024-02-15T07:33:50;95228.63;;;0.48;69.24
35989;BME280;22064;42.672;23.282;2024-02-15T07:36:22;95245.50;;;0.31;72.55
35989;BME280;22064;42.672;23.282;2024-02-15T07:38:49;95240.50;;;0.22;71.32
35989;BME280;22064;42.672;23.282;2024-02-15T07:41:17;95238.38;;;0.59;68.45
35989;BME280;22064;42.672;23.282;2024-02-15T07:43:43;95235.00;;;0.79;67.52
35989;BME280;22064;42.672;23.282;2024-02-15T07:46:13;95229.81;;;1.05;65.67
35989;BME280;22064;42.672;23.282;2024-02-15T07:48:45;95233.81;;;0.74;64.30
35989;BME280;22064;42.672;23.282;2024-02-15T07:51:15;95226.44;;;0.65;66.19
35989;BME280;22064;42.672;23.282;2024-02-15T07:53:42;95237.97;;;0.69;66.20
35989;BME280;22064;42.672;23.282;2024-02-15T07:56:11;95229.94;;;1.30;64.51
35989;BME280;22064;42.672;23.282;2024-02-15T07:58:41;95230.34;;;1.27;63.18
35989;BME280;22064;42.672;23.282;2024-02-15T08:01:08;95211.50;;;0.40;66.83
35989;BME280;22064;42.672;23.282;2024-02-15T08:03:36;95241.09;;;0.11;70.98
35989;BME280;22064;42.672;23.282;2024-02-15T08:06:03;95237.38;;;0.60;68.57
35989;BME280;22064;42.672;23.282;2024-02-15T08:08:35;95243.28;;;0.14;70.55
35989;BME280;22064;42.672;23.282;2024-02-15T08:11:03;95239.94;;;0.34;71.89
35989;BME280;22064;42.672;23.282;2024-02-15T08:13:29;95225.63;;;1.04;65.25
35989;BME280;22064;42.672;23.282;2024-02-15T08:15:56;95234.78;;;0.54;68.56
35989;BME280;22064;42.672;23.282;2024-02-15T08:18:21;95230.19;;;0.36;70.22
35989;BME280;22064;42.672;23.282;2024-02-15T08:20:47;95239.94;;;0.34;71.20
35989;BME280;22064;42.672;23.282;2024-02-15T08:23:13;95224.88;;;0.64;69.74
35989;BME280;22064;42.672;23.282;2024-02-15T08:25:39;95237.59;;;0.72;67.87
35989;BME280;22064;42.672;23.282;2024-02-15T08:28:07;95211.31;;;0.95;65.95
35989;BME280;22064;42.672;23.282;2024-02-15T08:30:33;95216.69;;;0.87;67.21
35989;BME280;22064;42.672;23.282;2024-02-15T08:32:59;95217.28;;;0.82;66.69
35989;BME280;22064;42.672;23.282;2024-02-15T08:35:25;95215.09;;;0.86;67.00
35989;BME280;22064;42.672;23.282;2024-02-15T08:37:51;95221.25;;;0.98;65.78
35989;BME280;22064;42.672;23.282;2024-02-15T08:40:18;95222.00;;;1.18;66.36
35989;BME280;22064;42.672;23.282;2024-02-15T08:42:50;95221.53;;;1.48;65.75
35989;BME280;22064;42.672;23.282;2024-02-15T08:45:16;95223.03;;;1.69;63.65
35989;BME280;22064;42.672;23.282;2024-02-15T08:47:43;95229.13;;;1.36;65.32
35989;BME280;22064;42.672;23.282;2024-02-15T08:50:10;95208.06;;;1.26;64.91
35989;BME280;22064;42.672;23.282;2024-02-15T08:52:36;95212.00;;;1.29;66.44
35989;BME280;22064;42.672;23.282;2024-02-15T08:55:08;95205.00;;;1.49;65.27
35989;BME280;22064;42.672;23.282;2024-02-15T08:57:40;95212.53;;;1.51;64.88
35989;BME280;22064;42.672;23.282;2024-02-15T09:00:10;95212.44;;;1.32;66.85
35989;BME280;22064;42.672;23.282;2024-02-15T09:02:39;95214.63;;;1.80;64.67
35989;BME280;22064;42.672;23.282;2024-02-15T09:05:06;95214.06;;;1.07;68.18
35989;BME280;22064;42.672;23.282;2024-02-15T09:07:32;95211.28;;;1.73;67.04
35989;BME280;22064;42.672;23.282;2024-02-15T09:09:59;95209.03;;;1.83;65.97
35989;BME280;22064;42.672;23.282;2024-02-15T09:12:25;95219.53;;;1.43;65.66
35989;BME280;22064;42.672;23.282;2024-02-15T09:14:50;95208.59;;;1.35;66.24
35989;BME280;22064;42.672;23.282;2024-02-15T09:17:16;95195.09;;;1.78;64.67
35989;BME280;22064;42.672;23.282;2024-02-15T09:19:42;95208.38;;;1.50;66.08
35989;BME280;22064;42.672;23.282;2024-02-15T09:22:08;95208.22;;;1.83;63.93
35989;BME280;22064;42.672;23.282;2024-02-15T09:24:34;95189.22;;;1.51;65.59
35989;BME280;22064;42.672;23.282;2024-02-15T09:27:01;95197.44;;;1.86;63.63
35989;BME280;22064;42.672;23.282;2024-02-15T09:29:30;95199.03;;;1.87;62.77
35989;BME280;22064;42.672;23.282;2024-02-15T09:31:58;95191.31;;;1.80;62.09
35989;BME280;22064;42.672;23.282;2024-02-15T09:34:27;95195.56;;;2.31;61.20
35989;BME280;22064;42.672;23.282;2024-02-15T09:36:53;95186.13;;;2.12;60.30
35989;BME280;22064;42.672;23.282;2024-02-15T09:39:19;95188.72;;;2.12;61.61
35989;BME280;22064;42.672;23.282;2024-02-15T09:41:45;95185.00;;;2.58;59.42
35989;BME280;22064;42.672;23.282;2024-02-15T09:44:11;95171.84;;;2.03;60.92
35989;BME280;22064;42.672;23.282;2024-02-15T09:46:43;95187.28;;;2.16;59.91
35989;BME280;22064;42.672;23.282;2024-02-15T09:49:12;95174.25;;;2.54;58.53
35989;BME280;22064;42.672;23.282;2024-02-15T09:51:40;95186.56;;;2.59;59.04
35989;BME280;22064;42.672;23.282;2024-02-15T09:54:07;95179.59;;;2.34;59.21
35989;BME280;22064;42.672;23.282;2024-02-15T09:56:35;95183.72;;;2.67;58.40
35989;BME280;22064;42.672;23.282;2024-02-15T09:59:01;95180.00;;;2.56;57.85
35989;BME280;22064;42.672;23.282;2024-02-15T10:01:31;95184.28;;;2.69;56.75
35989;BME280;22064;42.672;23.282;2024-02-15T10:03:58;95182.94;;;2.67;56.59
35989;BME280;22064;42.672;23.282;2024-02-15T10:06:25;95175.78;;;2.62;57.52
35989;BME280;22064;42.672;23.282;2024-02-15T10:08:52;95162.72;;;2.94;56.16
35989;BME280;22064;42.672;23.282;2024-02-15T10:11:19;95166.13;;;2.69;57.00
35989;BME280;22064;42.672;23.282;2024-02-15T10:13:46;95154.81;;;2.89;55.79
35989;BME280;22064;42.672;23.282;2024-02-15T10:16:19;95154.00;;;3.06;55.73
35989;BME280;22064;42.672;23.282;2024-02-15T10:18:51;95158.28;;;3.01;56.05
35989;BME280;22064;42.672;23.282;2024-02-15T10:21:26;95141.97;;;3.31;55.12
35989;BME280;22064;42.672;23.282;2024-02-15T10:24:05;95154.69;;;3.02;55.15
35989;BME280;22064;42.672;23.282;2024-02-15T10:26:31;95146.59;;;2.92;55.75
35989;BME280;22064;42.672;23.282;2024-02-15T10:29:11;95143.41;;;2.90;55.83
35989;BME280;22064;42.672;23.282;2024-02-15T10:31:38;95126.59;;;3.47;54.88
35989;BME280;22064;42.672;23.282;2024-02-15T10:34:07;95143.88;;;3.05;55.67
35989;BME280;22064;42.672;23.282;2024-02-15T10:36:34;95128.56;;;3.34;55.26
35989;BME280;22064;42.672;23.282;2024-02-15T10:39:17;95133.28;;;3.55;55.31
35989;BME280;22064;42.672;23.282;2024-02-15T10:41:49;95129.72;;;3.68;55.77
35989;BME280;22064;42.672;23.282;2024-02-15T10:44:18;95122.91;;;3.85;54.69
35989;BME280;22064;42.672;23.282;2024-02-15T10:46:48;95131.06;;;3.40;55.48
35989;BME280;22064;42.672;23.282;2024-02-15T10:49:24;95125.03;;;3.28;55.59
35989;BME280;22064;42.672;23.282;2024-02-15T10:52:00;95122.44;;;3.10;56.07
35989;BME280;22064;42.672;23.282;2024-02-15T10:54:46;95121.13;;;3.37;55.86
35989;BME280;22064;42.672;23.282;2024-02-15T10:57:13;95121.47;;;3.41;55.74
35989;BME280;22064;42.672;23.282;2024-02-15T11:02:26;95118.53;;;3.97;53.32
35989;BME280;22064;42.672;23.282;2024-02-15T11:05:01;95111.28;;;3.88;52.85
35989;BME280;22064;42.672;23.282;2024-02-15T11:07:31;95114.47;;;3.60;53.35
35989;BME280;22064;42.672;23.282;2024-02-15T11:09:57;95101.94;;;4.10;52.13
35989;BME280;22064;42.672;23.282;2024-02-15T11:12:25;95110.06;;;3.60;52.25
35989;BME280;22064;42.672;23.282;2024-02-15T11:14:52;95121.63;;;3.76;52.40
35989;BME280;22064;42.672;23.282;2024-02-15T11:20:06;95091.53;;;4.45;50.90
35989;BME280;22064;42.672;23.282;2024-02-15T11:22:35;95093.06;;;3.99;51.03
35989;BME280;22064;42.672;23.282;2024-02-15T11:25:05;95083.34;;;3.83;51.13
35989;BME280;22064;42.672;23.282;2024-02-15T11:27:35;95089.72;;;4.46;49.68
35989;BME280;22064;42.672;23.282;2024-02-15T11:30:06;95093.25;;;4.28;50.53
35989;BME280;22064;42.672;23.282;2024-02-15T11:32:49;95088.81;;;4.17;50.93
35989;BME280;22064;42.672;23.282;2024-02-15T11:35:20;95086.81;;;4.54;50.09
35989;BME280;22064;42.672;23.282;2024-02-15T11:42:44;95083.50;;;4.59;50.06
35989;BME280;22064;42.672;23.282;2024-02-15T11:45:12;95083.41;;;4.77;49.21
35989;BME280;22064;42.672;23.282;2024-02-15T11:47:39;95084.28;;;4.95;48.81
35989;BME280;22064;42.672;23.282;2024-02-15T11:50:08;95085.44;;;4.63;50.05
35989;BME280;22064;42.672;23.282;2024-02-15T11:52:39;95076.03;;;4.74;49.31
35989;BME280;22064;42.672;23.282;2024-02-15T11:55:07;95079.09;;;4.71;49.78
35989;BME280;22064;42.672;23.282;2024-02-15T11:57:40;95087.03;;;4.88;49.03
35989;BME280;22064;42.672;23.282;2024-02-15T12:00:23;95076.03;;;5.38;48.47
35989;BME280;22064;42.672;23.282;2024-02-15T12:03:09;95076.72;;;4.70;50.15
35989;BME280;22064;42.672;23.282;2024-02-15T12:05:56;95076.63;;;5.57;48.26
35989;BME280;22064;42.672;23.282;2024-02-15T12:08:47;95066.66;;;5.54;48.09
35989;BME280;22064;42.672;23.282;2024-02-15T12:11:32;95064.97;;;5.76;46.99
35989;BME280;22064;42.672;23.282;2024-02-15T12:14:17;95060.56;;;5.94;46.51
35989;BME280;22064;42.672;23.282;2024-02-15T12:17:02;95065.63;;;4.74;49.44
35989;BME280;22064;42.672;23.282;2024-02-15T12:19:48;95054.78;;;5.46;48.30
35989;BME280;22064;42.672;23.282;2024-02-15T12:22:17;95051.56;;;5.27;48.45
35989;BME280;22064;42.672;23.282;2024-02-15T12:25:06;95062.25;;;5.54;48.41
35989;BME280;22064;42.672;23.282;2024-02-15T12:27:41;95066.91;;;5.12;49.03
35989;BME280;22064;42.672;23.282;2024-02-15T12:30:15;95069.97;;;5.09;48.64
35989;BME280;22064;42.672;23.282;2024-02-15T12:32:46;95046.03;;;5.81;47.33
35989;BME280;22064;42.672;23.282;2024-02-15T12:35:14;95055.09;;;6.29;46.55
35989;BME280;22064;42.672;23.282;2024-02-15T12:38:01;95047.34;;;6.34;46.14
35989;BME280;22064;42.672;23.282;2024-02-15T12:40:35;95053.44;;;5.72;47.27
35989;BME280;22064;42.672;23.282;2024-02-15T12:43:04;95052.19;;;5.92;46.88
35989;BME280;22064;42.672;23.282;2024-02-15T12:45:32;95019.78;;;4.97;48.54
35989;BME280;22064;42.672;23.282;2024-02-15T12:47:58;95043.47;;;5.69;48.45
35989;BME280;22064;42.672;23.282;2024-02-15T12:50:29;95035.34;;;5.66;47.87
35989;BME280;22064;42.672;23.282;2024-02-15T12:52:56;95048.16;;;5.39;48.41
35989;BME280;22064;42.672;23.282;2024-02-15T12:55:31;95040.75;;;5.47;48.77
35989;BME280;22064;42.672;23.282;2024-02-15T12:58:01;95038.44;;;6.13;47.70
35989;BME280;22064;42.672;23.282;2024-02-15T13:00:30;95034.50;;;5.94;47.53
35989;BME280;22064;42.672;23.282;2024-02-15T13:02:59;95028.63;;;5.87;47.62
35989;BME280;22064;42.672;23.282;2024-02-15T13:05:29;95035.25;;;5.77;47.69
35989;BME280;22064;42.672;23.282;2024-02-15T13:07:57;95046.34;;;5.85;47.50
35989;BME280;22064;42.672;23.282;2024-02-15T13:10:36;95035.91;;;6.18;47.15
35989;BME280;22064;42.672;23.282;2024-02-15T13:13:02;95028.53;;;5.65;48.16
35989;BME280;22064;42.672;23.282;2024-02-15T13:15:28;95033.38;;;5.73;47.91
35989;BME280;22064;42.672;23.282;2024-02-15T13:17:59;95031.22;;;6.54;46.34